createdAt,value
2019-06-07T00:00:40.098Z,70.49
2019-06-07T00:03:04.876Z,69.97
2019-06-07T00:05:33.620Z,70.60
2019-06-07T00:08:07.849Z,69.99
2019-06-07T00:10:36.570Z,70.30
2019-06-07T00:13:03.722Z,70.15
2019-06-07T00:15:32.632Z,71.63
2019-06-07T00:18:01.580Z,71.80
2019-06-07T00:20:30.173Z,71.79
2019-06-07T00:22:59.090Z,71.59
2019-06-07T00:28:08.894Z,72.15
2019-06-07T00:30:50.790Z,73.02
2019-06-07T00:33:11.052Z,72.69
2019-06-07T00:35:39.044Z,73.01
2019-06-07T00:38:07.671Z,72.92
2019-06-07T00:40:36.605Z,72.79
2019-06-07T00:43:05.426Z,72.81
2019-06-07T00:45:35.134Z,73.97
2019-06-07T00:48:04.867Z,73.64
2019-06-07T00:50:33.499Z,74.26
2019-06-07T00:53:27.339Z,73.42
2019-06-07T00:55:33.620Z,73.82
2019-06-07T00:58:02.578Z,73.76
2019-06-07T01:00:31.740Z,73.32
2019-06-07T01:03:00.770Z,74.39
2019-06-07T01:05:31.635Z,73.65
2019-06-07T01:08:01.828Z,73.93
2019-06-07T01:10:52.188Z,74.57
2019-06-07T01:15:39.448Z,73.71
2019-06-07T01:20:39.076Z,73.35
2019-06-07T01:23:51.778Z,73.71
2019-06-07T01:25:38.749Z,74.02
2019-06-07T01:30:45.491Z,72.96
2019-06-07T01:35:52.536Z,71.79
2019-06-07T01:41:01.519Z,72.53
2019-06-07T01:43:31.070Z,72.71
2019-06-07T01:46:00.494Z,72.23
2019-06-07T01:48:48.197Z,72.20
2019-06-07T01:51:00.250Z,71.84
2019-06-07T01:53:31.381Z,70.91
2019-06-07T01:55:59.879Z,70.97
2019-06-07T01:58:29.233Z,71.69
2019-06-07T02:00:58.128Z,71.29
2019-06-07T02:03:30.683Z,71.36
2019-06-07T02:05:57.235Z,71.61
2019-06-07T02:08:27.392Z,71.38
2019-06-07T02:10:57.904Z,70.92
2019-06-07T02:13:28.902Z,70.67
2019-06-07T02:15:57.835Z,71.27
2019-06-07T02:18:29.108Z,71.30
2019-06-07T02:20:57.546Z,70.97
2019-06-07T02:23:28.290Z,72.24
2019-06-07T02:25:57.831Z,73.70
2019-06-07T02:28:36.542Z,74.23
2019-06-07T02:31:00.161Z,73.95
2019-06-07T02:33:33.468Z,73.84
2019-06-07T02:38:38.498Z,75.26
2019-06-07T02:41:07.552Z,75.64
2019-06-07T02:43:37.309Z,77.05
2019-06-07T02:46:25.024Z,79.28
2019-06-07T02:48:43.241Z,80.05
2019-06-07T02:53:50.184Z,78.79
2019-06-07T02:56:48.834Z,79.63
2019-06-07T02:58:50.175Z,80.28
2019-06-07T03:01:19.374Z,78.67
2019-06-07T03:03:48.538Z,79.67
2019-06-07T03:06:19.605Z,83.19
2019-06-07T03:08:48.345Z,83.49
2019-06-07T03:11:17.854Z,83.78
2019-06-07T03:13:48.010Z,85.11
2019-06-07T03:16:23.624Z,86.48
2019-06-07T03:19:06.280Z,83.86
2019-06-07T03:21:42.835Z,83.21
2019-06-07T03:24:11.821Z,81.33
2019-06-07T03:27:31.762Z,82.69
2019-06-07T03:29:13.769Z,80.27
2019-06-07T03:31:47.405Z,81.43
2019-06-07T03:34:13.988Z,83.11
2019-06-07T03:36:43.667Z,83.03
2019-06-07T03:39:12.412Z,81.99
2019-06-07T03:42:02.520Z,81.30
2019-06-07T03:44:12.712Z,81.67
2019-06-07T03:46:42.757Z,82.10
2019-06-07T03:49:11.551Z,81.70
2019-06-07T03:51:40.987Z,83.62
2019-06-07T03:54:10.275Z,85.00
2019-06-07T03:56:41.150Z,83.31
2019-06-07T03:59:09.937Z,81.32
2019-06-07T04:01:41.137Z,83.53
2019-06-07T04:04:09.784Z,84.42
2019-06-07T04:06:42.321Z,83.25
2019-06-07T04:11:48.497Z,87.03
2019-06-07T04:14:18.719Z,88.14
2019-06-07T04:16:47.403Z,87.54
2019-06-07T04:19:16.582Z,84.91
2019-06-07T04:21:46.039Z,83.85
2019-06-07T04:26:53.168Z,81.74
2019-06-07T04:29:33.133Z,83.23
2019-06-07T04:31:52.866Z,83.40
2019-06-07T04:34:21.607Z,84.12
2019-06-07T04:39:37.817Z,86.09
2019-06-07T04:42:04.546Z,84.78
2019-06-07T04:44:39.457Z,84.46
2019-06-07T04:47:10.818Z,84.54
2019-06-07T04:49:44.154Z,83.11
2019-06-07T04:54:54.042Z,80.01
2019-06-07T04:57:23.369Z,78.13
2019-06-07T05:02:23.816Z,75.25
2019-06-07T05:04:53.217Z,73.92
2019-06-07T05:07:22.233Z,72.37
2019-06-07T05:12:30.024Z,71.16
2019-06-07T05:14:59.840Z,72.43
2019-06-07T05:17:31.253Z,71.93
2019-06-07T05:20:00.428Z,73.87
2019-06-07T05:25:07.917Z,72.35
2019-06-07T05:27:40.411Z,71.54
2019-06-07T05:30:50.933Z,72.09
2019-06-07T05:32:45.977Z,71.91
2019-06-07T05:35:14.490Z,67.81
2019-06-07T05:37:45.836Z,69.64
2019-06-07T05:40:21.454Z,69.56
2019-06-07T05:42:51.162Z,68.63
2019-06-07T05:45:31.978Z,68.90
2019-06-07T05:48:02.805Z,67.19
2019-06-07T05:50:43.658Z,66.71
2019-06-07T05:53:02.414Z,65.93
2019-06-07T05:55:32.637Z,66.98
2019-06-07T05:58:01.887Z,65.49
2019-06-07T06:00:38.068Z,65.67
2019-06-07T06:03:05.714Z,64.10
2019-06-07T06:05:36.506Z,62.63
2019-06-07T06:08:02.559Z,64.88
2019-06-07T06:13:11.501Z,61.83
2019-06-07T06:15:51.610Z,63.14
2019-06-07T06:18:11.606Z,61.29
2019-06-07T06:21:05.353Z,60.57
2019-06-07T06:23:11.616Z,60.52
2019-06-07T06:25:42.708Z,61.25
2019-06-07T06:28:12.945Z,61.06
2019-06-07T06:30:45.908Z,59.78
2019-06-07T06:33:30.853Z,60.14
2019-06-07T06:35:47.390Z,60.77
2019-06-07T06:41:14.362Z,58.17
2019-06-07T06:43:26.662Z,56.63
2019-06-07T06:45:55.975Z,58.03
2019-06-07T06:48:24.677Z,54.75
2019-06-07T06:50:53.285Z,55.22
2019-06-07T06:53:22.219Z,58.40
2019-06-07T06:55:51.526Z,58.30
2019-06-07T06:58:20.155Z,57.79
2019-06-07T07:06:23.304Z,57.35
2019-06-07T07:08:28.279Z,55.97
2019-06-07T07:10:57.702Z,57.12
2019-06-07T07:13:27.361Z,57.69
2019-06-07T07:15:58.282Z,56.06
2019-06-07T07:18:27.092Z,55.64
2019-06-07T07:20:57.564Z,56.25
2019-06-07T07:23:27.235Z,55.35
2019-06-07T07:25:59.503Z,54.49
2019-06-07T07:28:26.506Z,55.37
2019-06-07T07:34:20.971Z,51.87
2019-06-07T07:36:19.009Z,50.66
2019-06-07T07:38:33.023Z,52.64
2019-06-07T07:41:13.810Z,52.45
2019-06-07T07:43:32.866Z,52.21
2019-06-07T07:46:03.542Z,51.90
2019-06-07T07:48:33.846Z,53.21
2019-06-07T07:53:52.346Z,51.98
2019-06-07T07:56:11.695Z,51.00
2019-06-07T07:58:40.299Z,50.48
2019-06-07T08:01:11.173Z,49.20
2019-06-07T08:03:40.427Z,48.91
2019-06-07T08:08:51.318Z,48.40
2019-06-07T08:11:20.529Z,47.10
2019-06-07T08:13:50.609Z,47.97
2019-06-07T08:16:19.729Z,44.71
2019-06-07T08:18:52.851Z,43.82
2019-06-07T08:21:25.799Z,41.46
2019-06-07T08:23:56.033Z,42.47
2019-06-07T08:26:21.412Z,41.85
2019-06-07T08:28:53.099Z,43.11
2019-06-07T08:31:20.417Z,42.05
2019-06-07T08:33:52.628Z,40.57
2019-06-07T08:36:40.381Z,38.80
2019-06-07T08:38:58.009Z,40.36
2019-06-07T08:41:23.528Z,42.65
2019-06-07T08:43:55.267Z,44.19
2019-06-07T08:46:23.714Z,44.08
2019-06-07T08:48:53.943Z,45.15
2019-06-07T08:51:23.386Z,47.11
2019-06-07T08:54:08.488Z,45.44
2019-06-07T08:56:23.132Z,47.89
2019-06-07T08:58:59.372Z,44.65
2019-06-07T09:04:09.900Z,45.72
2019-06-07T09:09:14.490Z,42.16
2019-06-07T09:11:43.784Z,41.73
2019-06-07T09:14:12.336Z,42.17
2019-06-07T09:16:41.382Z,40.82
2019-06-07T09:19:11.400Z,40.10
2019-06-07T09:21:40.642Z,39.94
2019-06-07T09:24:11.969Z,39.13
2019-06-07T09:26:41.790Z,39.25
2019-06-07T09:29:12.081Z,37.75
2019-06-07T09:31:52.467Z,38.66
2019-06-07T09:34:15.159Z,40.02
2019-06-07T09:36:44.637Z,38.62
2019-06-07T09:39:13.636Z,38.98
2019-06-07T09:41:49.667Z,39.36
2019-06-07T09:44:23.662Z,40.47
2019-06-07T09:46:44.989Z,38.58
2019-06-07T09:51:51.656Z,39.90
2019-06-07T09:55:03.257Z,37.24
2019-06-07T09:56:51.593Z,38.44
2019-06-07T09:59:20.581Z,36.73
2019-06-07T10:01:52.029Z,38.11
2019-06-07T10:07:09.922Z,37.97
2019-06-07T10:12:04.574Z,38.30
2019-06-07T10:14:33.734Z,37.59
2019-06-07T10:17:03.446Z,37.28
2019-06-07T10:19:32.043Z,35.86
2019-06-07T10:22:01.517Z,33.75
2019-06-07T10:24:30.477Z,38.21
2019-06-07T10:26:59.678Z,35.40
2019-06-07T10:29:28.342Z,34.94
2019-06-07T10:31:57.741Z,37.92
2019-06-07T10:34:27.519Z,37.19
2019-06-07T10:36:56.212Z,37.59
2019-06-07T10:39:25.333Z,37.29
2019-06-07T10:41:54.206Z,38.60
2019-06-07T10:44:23.789Z,33.25
2019-06-07T10:46:52.891Z,32.06
2019-06-07T10:52:05.050Z,36.56
2019-06-07T10:54:34.149Z,35.31
2019-06-07T10:57:04.855Z,36.62
2019-06-07T10:59:33.443Z,38.03
2019-06-07T11:02:03.448Z,36.36
2019-06-07T11:04:32.174Z,35.68
2019-06-07T11:09:42.517Z,34.18
2019-06-07T11:12:15.130Z,34.87
2019-06-07T11:14:43.970Z,35.89
2019-06-07T11:17:13.448Z,37.58
2019-06-07T11:19:42.471Z,36.84
2019-06-07T11:24:49.240Z,38.16
2019-06-07T11:27:19.114Z,37.88
2019-06-07T11:29:48.412Z,37.27
2019-06-07T11:32:18.738Z,37.73
2019-06-07T11:34:48.514Z,39.20
2019-06-07T11:37:17.390Z,39.67
2019-06-07T11:39:46.321Z,39.66
2019-06-07T11:44:59.137Z,39.39
2019-06-07T11:47:30.776Z,38.93
2019-06-07T11:49:59.356Z,39.67
2019-06-07T11:52:28.772Z,39.93
2019-06-07T11:54:58.040Z,38.00
2019-06-07T11:57:26.631Z,38.17
2019-06-07T11:59:55.785Z,39.43
2019-06-07T12:02:24.739Z,38.24
2019-06-07T12:04:54.077Z,39.06
2019-06-07T12:07:22.703Z,38.71
2019-06-07T12:09:56.367Z,39.99
2019-06-07T12:12:22.555Z,36.05
2019-06-07T12:17:29.044Z,34.85
2019-06-07T12:19:58.140Z,37.69
2019-06-07T12:25:10.200Z,38.73
2019-06-07T12:27:39.428Z,37.90
2019-06-07T12:32:49.026Z,38.04
2019-06-07T12:35:19.832Z,38.32
2019-06-07T12:37:48.954Z,38.05
2019-06-07T12:40:27.725Z,37.82
2019-06-07T12:42:48.950Z,37.84
2019-06-07T12:45:41.238Z,37.93
2019-06-07T12:47:49.282Z,37.81
2019-06-07T12:50:21.541Z,38.97
2019-06-07T12:52:49.106Z,38.42
2019-06-07T12:55:20.427Z,39.71
2019-06-07T12:57:49.302Z,38.32
2019-06-07T13:00:18.461Z,40.64
2019-06-07T13:02:47.155Z,39.55
2019-06-07T13:05:17.864Z,38.72
2019-06-07T13:07:46.551Z,38.59
2019-06-07T13:10:17.778Z,37.88
2019-06-07T13:12:46.985Z,38.92
2019-06-07T13:15:18.786Z,38.49
2019-06-07T13:17:46.968Z,37.94
2019-06-07T13:20:16.166Z,39.75
2019-06-07T13:22:44.822Z,40.26
2019-06-07T13:25:16.304Z,40.62
2019-06-07T13:27:44.853Z,40.22
2019-06-07T13:30:13.535Z,40.70
2019-06-07T13:32:42.185Z,39.90
2019-06-07T13:35:12.007Z,39.86
2019-06-07T13:37:42.140Z,40.61
2019-06-07T13:40:11.833Z,40.43
2019-06-07T13:45:24.162Z,40.40
2019-06-07T13:47:53.048Z,41.70
2019-06-07T13:50:23.899Z,40.29
2019-06-07T13:52:53.073Z,40.78
2019-06-07T13:55:22.000Z,40.32
2019-06-07T13:57:50.608Z,42.56
2019-06-07T14:00:21.130Z,41.63
2019-06-07T14:02:50.162Z,42.97
2019-06-07T14:05:20.814Z,41.64
2019-06-07T14:07:50.180Z,41.10
2019-06-07T14:10:19.432Z,40.91
2019-06-07T14:12:48.106Z,42.65
2019-06-07T14:15:17.100Z,43.78
2019-06-07T14:17:46.001Z,42.73
2019-06-07T14:20:15.910Z,42.98
2019-06-07T14:22:45.434Z,42.58
2019-06-07T14:25:15.136Z,42.94
2019-06-07T14:27:43.708Z,42.39
2019-06-07T14:32:54.816Z,42.97
2019-06-07T14:35:24.498Z,43.88
2019-06-07T14:37:53.236Z,44.01
2019-06-07T14:40:23.163Z,43.33
2019-06-07T14:45:34.351Z,42.86
2019-06-07T14:50:46.989Z,43.22
2019-06-07T14:53:16.806Z,44.51
2019-06-07T14:55:46.099Z,44.23
2019-06-07T14:58:15.782Z,43.36
2019-06-07T15:00:48.024Z,43.05
2019-06-07T15:03:16.860Z,41.44
2019-06-07T15:08:23.194Z,42.66
2019-06-07T15:10:54.754Z,42.90
2019-06-07T15:13:23.698Z,42.60
2019-06-07T15:15:52.391Z,44.83
2019-06-07T15:20:58.086Z,43.78
2019-06-07T15:23:28.817Z,42.41
2019-06-07T15:28:38.890Z,42.38
2019-06-07T15:31:07.955Z,43.25
2019-06-07T15:33:38.363Z,44.06
2019-06-07T15:36:07.223Z,44.13
2019-06-07T15:38:37.197Z,45.34
2019-06-07T15:41:07.211Z,45.54
2019-06-07T15:43:37.447Z,43.98
2019-06-07T15:46:06.507Z,44.62
2019-06-07T15:48:36.084Z,44.99
2019-06-07T15:51:05.149Z,44.80
2019-06-07T15:53:39.095Z,46.26
2019-06-07T15:56:04.157Z,45.31
2019-06-07T15:58:33.197Z,44.36
2019-06-07T16:01:01.916Z,44.92
2019-06-07T16:03:31.479Z,45.12
2019-06-07T16:08:40.764Z,44.85
2019-06-07T16:11:11.204Z,44.88
2019-06-07T16:13:40.998Z,44.95
2019-06-07T16:16:10.045Z,45.25
2019-06-07T16:18:39.685Z,46.11
2019-06-07T16:21:08.869Z,45.50
2019-06-07T16:23:37.887Z,45.40
2019-06-07T16:26:06.684Z,45.97
2019-06-07T16:28:36.281Z,46.83
2019-06-07T16:31:04.924Z,47.16
2019-06-07T16:33:34.694Z,47.65
2019-06-07T16:36:03.444Z,47.18
2019-06-07T16:38:32.462Z,47.54
2019-06-07T16:41:02.049Z,48.95
2019-06-07T16:43:31.102Z,48.95
2019-06-07T16:46:00.326Z,48.57
2019-06-07T16:48:29.486Z,48.30
2019-06-07T16:50:58.062Z,47.66
2019-06-07T16:53:28.767Z,48.21
2019-06-07T16:55:58.302Z,47.91
2019-06-07T16:58:26.979Z,48.51
2019-06-07T17:00:55.685Z,47.67
2019-06-07T17:03:27.670Z,47.76
2019-06-07T17:05:56.322Z,47.84
2019-06-07T17:08:25.165Z,47.64
2019-06-07T17:13:34.063Z,47.41
2019-06-07T17:16:03.550Z,47.46
2019-06-07T17:18:32.136Z,48.50
2019-06-07T17:21:01.219Z,48.61
2019-06-07T17:23:30.652Z,48.20
2019-06-07T17:25:59.358Z,48.27
2019-06-07T17:28:28.738Z,48.15
2019-06-07T17:33:34.938Z,48.03
2019-06-07T17:36:03.787Z,48.36
2019-06-07T17:38:33.506Z,48.27
2019-06-07T17:41:02.161Z,48.60
2019-06-07T17:43:32.130Z,49.03
2019-06-07T17:46:01.141Z,49.09
2019-06-07T17:51:11.522Z,49.88
2019-06-07T17:56:18.051Z,49.87
2019-06-07T17:58:46.716Z,49.96
2019-06-07T18:01:15.576Z,50.52
2019-06-07T18:03:49.545Z,49.78
2019-06-07T18:09:03.302Z,50.40
2019-06-07T18:11:32.411Z,50.22
2019-06-07T18:14:10.299Z,50.39
2019-06-07T18:16:32.430Z,50.47
2019-06-07T18:19:01.910Z,51.34
2019-06-07T18:21:31.100Z,50.03
2019-06-07T18:24:00.437Z,50.66
2019-06-07T18:26:32.097Z,50.65
2019-06-07T18:29:00.712Z,50.43
2019-06-07T18:34:08.945Z,50.31
2019-06-07T18:36:37.866Z,50.51
2019-06-07T18:39:07.626Z,50.49
2019-06-07T18:41:36.230Z,51.20
2019-06-07T18:46:42.442Z,51.57
2019-06-07T18:49:11.368Z,51.54
2019-06-07T18:51:39.987Z,51.44
2019-06-07T18:56:46.800Z,52.52
2019-06-07T18:59:16.022Z,51.91
2019-06-07T19:04:28.708Z,52.32
2019-06-07T19:06:58.656Z,52.25
2019-06-07T19:09:27.560Z,52.36
2019-06-07T19:11:57.281Z,53.33
2019-06-07T19:17:03.214Z,54.34
2019-06-07T19:19:32.204Z,54.82
2019-06-07T19:22:01.706Z,55.03
2019-06-07T19:27:09.310Z,54.70
2019-06-07T19:29:37.883Z,54.94
2019-06-07T19:34:45.043Z,55.03
2019-06-07T19:37:14.400Z,55.14
2019-06-07T19:42:49.720Z,56.15
2019-06-07T19:45:30.188Z,56.75
2019-06-07T19:50:38.264Z,57.35
2019-06-07T19:53:07.083Z,57.01
2019-06-07T19:58:14.731Z,58.05
2019-06-07T20:00:43.449Z,58.39
2019-06-07T20:03:12.746Z,58.59
2019-06-07T20:05:41.434Z,58.73
2019-06-07T20:10:47.627Z,58.99
2019-06-07T20:13:19.026Z,58.99
2019-06-07T20:15:47.175Z,59.45
2019-06-07T20:18:15.817Z,59.84
2019-06-07T20:20:44.503Z,60.08
2019-06-07T20:23:17.124Z,60.08
2019-06-07T20:25:46.120Z,60.22
2019-06-07T20:30:44.063Z,62.72
2019-06-07T20:33:13.172Z,62.39
2019-06-07T20:38:22.400Z,62.06
2019-06-07T20:40:51.595Z,61.35
2019-06-07T20:43:20.659Z,61.16
2019-06-07T20:45:49.792Z,61.07
2019-06-07T20:50:56.341Z,60.39
2019-06-07T20:53:25.233Z,60.45
2019-06-07T20:58:31.538Z,61.03
2019-06-07T21:01:00.616Z,61.03
2019-06-07T21:03:29.276Z,60.50
2019-06-07T21:05:59.288Z,61.08
2019-06-07T21:08:28.697Z,59.70
2019-06-07T21:10:59.848Z,59.49
2019-06-07T21:13:29.487Z,59.79
2019-06-07T21:15:59.889Z,61.01
2019-06-07T21:18:28.973Z,61.01
2019-06-07T21:20:58.497Z,63.20
2019-06-07T21:23:27.434Z,64.38
2019-06-07T21:25:56.708Z,66.62
2019-06-07T21:28:25.789Z,74.62
2019-06-07T21:30:55.372Z,74.62
2019-06-07T21:33:24.217Z,75.95
2019-06-07T21:35:53.226Z,82.07
2019-06-07T21:38:22.417Z,82.07
2019-06-07T21:40:51.679Z,82.15
2019-06-07T21:43:20.858Z,83.83
2019-06-07T21:46:04.405Z,85.46
2019-06-07T21:48:21.353Z,82.51
2019-06-07T21:50:50.852Z,83.84
2019-06-07T21:53:20.105Z,87.08
2019-06-07T21:55:48.971Z,88.62
2019-06-07T21:58:18.053Z,90.01
2019-06-07T22:01:18.855Z,92.72
2019-06-07T22:03:47.907Z,93.34
2019-06-07T22:06:16.539Z,92.62
2019-06-07T22:11:25.513Z,91.69
2019-06-07T22:13:54.373Z,93.24
2019-06-07T22:16:29.155Z,91.61
2019-06-07T22:18:54.500Z,92.81
2019-06-07T22:21:23.804Z,94.88
2019-06-07T22:23:52.457Z,94.74
2019-06-07T22:26:21.629Z,94.62
2019-06-07T22:28:50.986Z,94.29
2019-06-07T22:31:20.306Z,92.65
2019-06-07T22:33:49.062Z,93.52
2019-06-07T22:36:19.479Z,93.15
2019-06-07T22:38:49.438Z,94.29
2019-06-07T22:41:18.954Z,94.63
2019-06-07T22:43:47.776Z,96.40
2019-06-07T22:46:16.733Z,95.79
2019-06-07T22:48:45.514Z,95.45
2019-06-07T22:53:51.747Z,92.39
2019-06-07T22:56:26.523Z,92.10
2019-06-07T22:58:55.991Z,93.55
2019-06-07T23:01:24.572Z,92.26
2019-06-07T23:03:53.269Z,93.47
2019-06-07T23:06:21.962Z,93.42
2019-06-07T23:08:50.833Z,90.73
2019-06-07T23:11:19.765Z,92.97
2019-06-07T23:13:48.380Z,91.72
2019-06-07T23:16:17.786Z,94.66
2019-06-07T23:18:46.462Z,93.37
2019-06-07T23:21:15.917Z,92.63
2019-06-07T23:26:23.239Z,94.36
2019-06-07T23:28:52.206Z,94.41
2019-06-07T23:31:20.904Z,94.28
2019-06-07T23:33:49.904Z,92.86
2019-06-07T23:38:56.002Z,98.74
2019-06-07T23:44:02.544Z,100.00
2019-06-07T23:49:17.608Z,100.00
2019-06-07T23:51:46.658Z,100.00
2019-06-07T23:54:15.668Z,100.00
2019-06-07T23:56:44.314Z,100.00
2019-06-07T23:59:14.219Z,100.00
